createdAt,value
2018-02-23T00:00:46.656Z,0.00
2018-02-23T00:01:46.930Z,0.00
2018-02-23T00:02:47.189Z,0.00
2018-02-23T00:03:47.429Z,0.00
2018-02-23T00:04:47.703Z,0.00
2018-02-23T00:05:47.954Z,0.00
2018-02-23T00:06:48.220Z,0.00
2018-02-23T00:07:48.484Z,0.00
2018-02-23T00:08:48.747Z,0.00
2018-02-23T00:09:49.004Z,0.00
2018-02-23T00:10:49.269Z,0.00
2018-02-23T00:11:49.538Z,0.00
2018-02-23T00:12:49.807Z,0.00
2018-02-23T00:13:50.083Z,0.00
2018-02-23T00:14:50.341Z,0.00
2018-02-23T00:15:50.607Z,0.00
2018-02-23T00:16:50.871Z,0.00
2018-02-23T00:17:51.244Z,0.00
2018-02-23T00:18:51.396Z,0.00
2018-02-23T00:19:51.660Z,0.00
2018-02-23T00:20:51.925Z,0.00
2018-02-23T00:21:52.195Z,0.00
2018-02-23T00:22:52.445Z,0.00
2018-02-23T00:23:52.717Z,0.00
2018-02-23T00:24:52.976Z,0.00
2018-02-23T00:25:53.241Z,0.00
2018-02-23T00:26:53.515Z,0.00
2018-02-23T00:27:53.762Z,0.00
2018-02-23T00:28:54.022Z,0.00
2018-02-23T00:29:54.293Z,0.00
2018-02-23T00:30:54.578Z,0.00
2018-02-23T00:31:54.821Z,0.00
2018-02-23T00:32:55.088Z,0.00
2018-02-23T00:33:55.367Z,0.00
2018-02-23T00:34:55.623Z,0.00
2018-02-23T00:35:55.890Z,0.00
2018-02-23T00:36:56.150Z,0.00
2018-02-23T00:37:56.415Z,0.00
2018-02-23T00:38:56.683Z,0.00
2018-02-23T00:39:56.948Z,0.00
2018-02-23T00:40:57.219Z,0.00
2018-02-23T00:41:57.475Z,0.00
2018-02-23T00:42:57.748Z,0.00
2018-02-23T00:43:58.010Z,0.00
2018-02-23T00:44:58.282Z,0.00
2018-02-23T00:45:58.538Z,0.00
2018-02-23T00:46:58.809Z,0.00
2018-02-23T00:47:59.065Z,0.00
2018-02-23T00:48:59.366Z,0.00
2018-02-23T00:49:59.585Z,0.00
2018-02-23T00:50:59.887Z,0.00
2018-02-23T00:52:00.114Z,0.00
2018-02-23T00:53:00.384Z,0.00
2018-02-23T00:54:00.641Z,0.00
2018-02-23T00:55:00.926Z,0.00
2018-02-23T00:56:01.202Z,0.00
2018-02-23T00:57:01.467Z,0.00
2018-02-23T00:58:01.730Z,0.00
2018-02-23T00:59:01.993Z,0.00
2018-02-23T01:00:04.544Z,0.00
2018-02-23T01:01:02.572Z,0.00
2018-02-23T01:02:02.847Z,0.00
2018-02-23T01:03:03.218Z,0.00
2018-02-23T01:04:03.470Z,0.00
2018-02-23T01:05:03.746Z,0.00
2018-02-23T01:06:04.006Z,0.00
2018-02-23T01:07:04.301Z,0.00
2018-02-23T01:08:04.569Z,0.00
2018-02-23T01:09:04.838Z,0.00
2018-02-23T01:10:05.109Z,0.00
2018-02-23T01:11:05.359Z,0.00
2018-02-23T01:12:05.663Z,0.00
2018-02-23T01:13:05.888Z,0.00
2018-02-23T01:14:06.160Z,0.00
2018-02-23T01:15:06.420Z,0.00
2018-02-23T01:16:06.756Z,0.00
2018-02-23T01:17:06.973Z,0.00
2018-02-23T01:18:07.228Z,0.00
2018-02-23T01:19:07.496Z,0.00
2018-02-23T01:20:07.769Z,0.00
2018-02-23T01:21:08.025Z,0.00
2018-02-23T01:22:08.294Z,0.00
2018-02-23T01:23:08.555Z,0.00
2018-02-23T01:24:08.824Z,0.00
2018-02-23T01:25:09.078Z,0.00
2018-02-23T01:26:09.343Z,0.00
2018-02-23T01:27:09.608Z,0.00
2018-02-23T01:28:09.875Z,0.00
2018-02-23T01:29:10.132Z,0.00
2018-02-23T01:30:10.395Z,0.00
2018-02-23T01:31:10.662Z,0.00
2018-02-23T01:32:10.929Z,0.00
2018-02-23T01:33:11.197Z,0.00
2018-02-23T01:34:11.464Z,0.00
2018-02-23T01:35:11.733Z,0.00
2018-02-23T01:36:12.059Z,0.00
2018-02-23T01:37:12.244Z,0.00
2018-02-23T01:38:12.513Z,0.00
2018-02-23T01:39:12.776Z,0.00
2018-02-23T01:40:13.035Z,0.00
2018-02-23T01:41:13.311Z,0.00
2018-02-23T01:42:13.565Z,0.00
2018-02-23T01:43:13.841Z,0.00
2018-02-23T01:44:14.092Z,0.00
2018-02-23T01:45:14.363Z,0.00
2018-02-23T01:46:14.614Z,0.00
2018-02-23T01:47:14.880Z,0.00
2018-02-23T01:48:15.142Z,0.00
2018-02-23T01:49:15.417Z,0.00
2018-02-23T01:50:15.671Z,0.00
2018-02-23T01:51:15.937Z,0.00
2018-02-23T01:52:16.197Z,0.00
2018-02-23T01:53:16.470Z,0.00
2018-02-23T01:54:16.722Z,0.00
2018-02-23T01:55:16.993Z,0.00
2018-02-23T01:56:17.242Z,0.00
2018-02-23T01:57:17.515Z,0.00
2018-02-23T01:58:17.774Z,0.00
2018-02-23T01:59:18.042Z,0.00
2018-02-23T02:00:18.308Z,0.00
2018-02-23T02:01:18.565Z,0.00
2018-02-23T02:02:18.823Z,0.00
2018-02-23T02:03:19.092Z,0.00
2018-02-23T02:04:19.347Z,0.00
2018-02-23T02:05:19.617Z,0.00
2018-02-23T02:06:19.874Z,0.00
2018-02-23T02:07:20.145Z,0.00
2018-02-23T02:08:20.397Z,0.00
2018-02-23T02:09:20.647Z,0.00
2018-02-23T02:10:20.912Z,0.00
2018-02-23T02:11:21.194Z,0.00
2018-02-23T02:12:21.485Z,0.00
2018-02-23T02:13:21.777Z,0.00
2018-02-23T02:14:22.042Z,0.00
2018-02-23T02:15:22.315Z,0.00
2018-02-23T02:16:22.580Z,0.00
2018-02-23T02:17:22.842Z,0.00
2018-02-23T02:18:23.120Z,0.00
2018-02-23T02:19:23.373Z,0.00
2018-02-23T02:20:23.639Z,0.00
2018-02-23T02:21:23.973Z,0.00
2018-02-23T02:22:24.164Z,0.00
2018-02-23T02:23:24.417Z,0.00
2018-02-23T02:24:24.691Z,0.00
2018-02-23T02:25:24.951Z,0.00
2018-02-23T02:26:25.213Z,0.00
2018-02-23T02:27:25.480Z,0.00
2018-02-23T02:28:25.743Z,0.00
2018-02-23T02:29:26.018Z,0.00
2018-02-23T02:30:26.314Z,0.00
2018-02-23T02:31:26.580Z,0.00
2018-02-23T02:32:26.845Z,0.00
2018-02-23T02:33:27.107Z,0.00
2018-02-23T02:34:27.412Z,0.00
2018-02-23T02:35:27.677Z,0.00
2018-02-23T02:36:27.951Z,0.00
2018-02-23T02:37:28.204Z,0.00
2018-02-23T02:38:28.471Z,0.00
2018-02-23T02:39:28.731Z,0.00
2018-02-23T02:40:28.999Z,0.00
2018-02-23T02:41:29.259Z,0.00
2018-02-23T02:42:29.522Z,0.00
2018-02-23T02:43:29.837Z,0.00
2018-02-23T02:44:30.098Z,0.00
2018-02-23T02:45:30.365Z,0.00
2018-02-23T02:46:30.623Z,0.00
2018-02-23T02:47:30.896Z,0.00
2018-02-23T02:48:31.144Z,0.00
2018-02-23T02:49:31.424Z,0.00
2018-02-23T02:50:31.672Z,0.00
2018-02-23T02:51:31.939Z,0.00
2018-02-23T02:52:32.196Z,0.00
2018-02-23T02:53:32.466Z,0.00
2018-02-23T02:54:32.724Z,0.00
2018-02-23T02:55:32.988Z,0.00
2018-02-23T02:56:33.254Z,0.00
2018-02-23T02:57:33.517Z,0.00
2018-02-23T02:58:33.785Z,0.00
2018-02-23T02:59:34.051Z,0.00
2018-02-23T03:00:34.329Z,0.00
2018-02-23T03:01:34.592Z,0.00
2018-02-23T03:02:34.855Z,0.00
2018-02-23T03:03:35.122Z,0.00
2018-02-23T03:04:35.399Z,0.00
2018-02-23T03:05:35.668Z,0.00
2018-02-23T03:06:35.939Z,0.00
2018-02-23T03:07:36.252Z,0.00
2018-02-23T03:08:36.442Z,0.00
2018-02-23T03:09:36.712Z,0.00
2018-02-23T03:10:36.974Z,0.00
2018-02-23T03:11:37.243Z,0.00
2018-02-23T03:12:37.558Z,0.00
2018-02-23T03:13:37.828Z,0.00
2018-02-23T03:14:38.085Z,0.00
2018-02-23T03:15:38.350Z,0.00
2018-02-23T03:16:38.653Z,0.00
2018-02-23T03:17:38.882Z,0.00
2018-02-23T03:18:39.135Z,0.00
2018-02-23T03:19:39.420Z,0.00
2018-02-23T03:20:39.659Z,0.00
2018-02-23T03:21:39.927Z,0.00
2018-02-23T03:22:40.182Z,0.00
2018-02-23T03:23:40.442Z,0.00
2018-02-23T03:24:40.712Z,0.00
2018-02-23T03:25:40.978Z,0.00
2018-02-23T03:26:41.248Z,0.00
2018-02-23T03:27:41.506Z,0.00
2018-02-23T03:28:41.760Z,0.00
2018-02-23T03:29:42.021Z,0.00
2018-02-23T03:30:42.290Z,0.00
2018-02-23T03:31:42.548Z,0.00
2018-02-23T03:32:42.809Z,0.00
2018-02-23T03:33:43.086Z,0.00
2018-02-23T03:34:43.334Z,0.00
2018-02-23T03:35:43.603Z,0.00
2018-02-23T03:36:43.868Z,0.00
2018-02-23T03:37:44.134Z,0.00
2018-02-23T03:38:44.388Z,0.00
2018-02-23T03:39:44.659Z,0.00
2018-02-23T03:40:44.919Z,0.00
2018-02-23T03:41:45.183Z,0.00
2018-02-23T03:42:45.443Z,0.00
2018-02-23T03:43:45.709Z,0.00
2018-02-23T03:44:45.977Z,0.00
2018-02-23T03:45:46.242Z,0.00
2018-02-23T03:46:46.513Z,0.00
2018-02-23T03:47:46.768Z,0.00
2018-02-23T03:48:47.041Z,0.00
2018-02-23T03:49:47.306Z,0.00
2018-02-23T03:50:47.577Z,0.00
2018-02-23T03:51:47.830Z,0.00
2018-02-23T03:52:48.102Z,0.00
2018-02-23T03:53:48.367Z,0.00
2018-02-23T03:54:48.616Z,0.00
2018-02-23T03:55:48.878Z,0.00
2018-02-23T03:56:49.144Z,0.00
2018-02-23T03:57:49.406Z,0.00
2018-02-23T03:58:49.679Z,0.00
2018-02-23T03:59:49.933Z,0.00
2018-02-23T04:00:50.202Z,0.00
2018-02-23T04:01:50.450Z,0.00
2018-02-23T04:02:50.708Z,0.00
2018-02-23T04:03:50.969Z,0.00
2018-02-23T04:04:51.236Z,0.00
2018-02-23T04:05:51.503Z,0.00
2018-02-23T04:06:51.770Z,0.00
2018-02-23T04:07:52.028Z,0.00
2018-02-23T04:08:52.306Z,0.00
2018-02-23T04:09:52.569Z,0.00
2018-02-23T04:10:52.831Z,0.00
2018-02-23T04:11:53.097Z,0.00
2018-02-23T04:12:53.357Z,0.00
2018-02-23T04:13:53.639Z,0.00
2018-02-23T04:14:53.896Z,0.00
2018-02-23T04:15:54.161Z,0.00
2018-02-23T04:16:54.440Z,0.00
2018-02-23T04:17:54.690Z,0.00
2018-02-23T04:18:54.979Z,0.00
2018-02-23T04:19:55.248Z,0.00
2018-02-23T04:20:55.504Z,0.00
2018-02-23T04:21:55.775Z,0.00
2018-02-23T04:22:56.035Z,0.00
2018-02-23T04:23:56.299Z,0.00
2018-02-23T04:24:56.555Z,0.00
2018-02-23T04:25:56.824Z,0.00
2018-02-23T04:26:57.083Z,0.00
2018-02-23T04:27:57.350Z,0.00
2018-02-23T04:28:57.609Z,0.00
2018-02-23T04:29:57.878Z,0.00
2018-02-23T04:30:58.134Z,0.00
2018-02-23T04:31:58.402Z,0.00
2018-02-23T04:32:58.664Z,0.00
2018-02-23T04:33:58.934Z,0.00
2018-02-23T04:34:59.188Z,0.00
2018-02-23T04:35:59.454Z,0.00
2018-02-23T04:36:59.714Z,0.00
2018-02-23T04:37:59.979Z,0.00
2018-02-23T04:39:00.240Z,0.00
2018-02-23T04:40:00.506Z,0.00
2018-02-23T04:41:00.781Z,0.00
2018-02-23T04:42:01.045Z,0.00
2018-02-23T04:43:01.322Z,0.00
2018-02-23T04:44:01.601Z,0.00
2018-02-23T04:45:01.984Z,0.00
2018-02-23T04:46:02.125Z,0.00
2018-02-23T04:47:02.367Z,0.00
2018-02-23T04:48:02.635Z,0.00
2018-02-23T04:49:02.901Z,0.00
2018-02-23T04:50:03.166Z,0.00
2018-02-23T04:51:03.424Z,0.00
2018-02-23T04:52:03.687Z,0.00
2018-02-23T04:53:03.948Z,0.00
2018-02-23T04:54:04.229Z,0.00
2018-02-23T04:55:04.472Z,0.00
2018-02-23T04:56:04.794Z,0.00
2018-02-23T04:57:04.991Z,0.00
2018-02-23T04:58:05.255Z,0.00
2018-02-23T04:59:05.517Z,0.00
2018-02-23T05:00:05.872Z,0.00
2018-02-23T05:01:06.040Z,0.00
2018-02-23T05:02:06.306Z,0.00
2018-02-23T05:03:06.570Z,0.00
2018-02-23T05:04:06.837Z,0.00
2018-02-23T05:05:07.097Z,0.00
2018-02-23T05:06:07.363Z,0.00
2018-02-23T05:07:07.628Z,0.00
2018-02-23T05:08:07.892Z,0.00
2018-02-23T05:09:08.154Z,0.00
2018-02-23T05:10:08.419Z,0.00
2018-02-23T05:11:08.681Z,0.00
2018-02-23T05:12:08.961Z,0.00
2018-02-23T05:13:09.202Z,0.00
2018-02-23T05:14:09.471Z,0.00
2018-02-23T05:15:09.729Z,0.00
2018-02-23T05:16:09.994Z,0.00
2018-02-23T05:17:10.260Z,0.00
2018-02-23T05:18:10.525Z,0.00
2018-02-23T05:19:10.781Z,0.00
2018-02-23T05:20:11.054Z,0.00
2018-02-23T05:21:11.372Z,0.00
2018-02-23T05:22:11.624Z,0.00
2018-02-23T05:23:11.892Z,0.00
2018-02-23T05:24:12.150Z,0.00
2018-02-23T05:25:12.414Z,0.00
2018-02-23T05:26:12.681Z,0.00
2018-02-23T05:27:12.966Z,0.00
2018-02-23T05:28:13.195Z,0.00
2018-02-23T05:29:13.460Z,0.00
2018-02-23T05:30:13.724Z,0.00
2018-02-23T05:31:13.994Z,0.00
2018-02-23T05:32:14.248Z,0.00
2018-02-23T05:33:14.506Z,0.00
2018-02-23T05:34:14.766Z,0.00
2018-02-23T05:35:15.032Z,0.00
2018-02-23T05:36:15.296Z,0.00
2018-02-23T05:37:15.555Z,0.00
2018-02-23T05:38:15.819Z,0.00
2018-02-23T05:39:16.100Z,0.00
2018-02-23T05:40:16.347Z,0.00
2018-02-23T05:41:16.624Z,0.00
2018-02-23T05:42:16.872Z,0.00
2018-02-23T05:43:17.149Z,0.00
2018-02-23T05:44:17.400Z,0.00
2018-02-23T05:45:17.680Z,0.00
2018-02-23T05:46:17.931Z,0.00
2018-02-23T05:47:18.195Z,0.00
2018-02-23T05:48:18.463Z,0.00
2018-02-23T05:49:18.721Z,0.00
2018-02-23T05:50:18.980Z,0.00
2018-02-23T05:51:19.246Z,0.00
2018-02-23T05:52:19.515Z,0.00
2018-02-23T05:53:19.776Z,0.00
2018-02-23T05:54:20.038Z,0.00
2018-02-23T05:55:20.319Z,0.00
2018-02-23T05:56:20.567Z,0.00
2018-02-23T05:57:20.831Z,0.00
2018-02-23T05:58:21.109Z,0.00
2018-02-23T05:59:21.361Z,0.00
2018-02-23T06:00:21.641Z,0.00
2018-02-23T06:01:21.894Z,0.00
2018-02-23T06:02:22.161Z,0.00
2018-02-23T06:03:22.417Z,0.00
2018-02-23T06:04:22.686Z,0.00
2018-02-23T06:05:22.946Z,0.00
2018-02-23T06:06:23.219Z,0.00
2018-02-23T06:07:23.470Z,0.00
2018-02-23T06:08:23.737Z,0.00
2018-02-23T06:09:23.996Z,0.00
2018-02-23T06:10:24.263Z,0.00
2018-02-23T06:11:24.520Z,0.00
2018-02-23T06:12:24.789Z,0.00
2018-02-23T06:13:25.046Z,0.00
2018-02-23T06:14:25.314Z,4.00
2018-02-23T06:15:25.572Z,4.00
2018-02-23T06:16:25.839Z,4.00
2018-02-23T06:17:26.090Z,0.00
2018-02-23T06:18:26.376Z,0.00
2018-02-23T06:19:26.667Z,4.00
2018-02-23T06:20:26.897Z,4.00
2018-02-23T06:21:27.172Z,4.00
2018-02-23T06:22:27.456Z,4.00
2018-02-23T06:23:27.701Z,4.00
2018-02-23T06:24:27.973Z,4.00
2018-02-23T06:25:28.228Z,4.00
2018-02-23T06:26:28.499Z,4.00
2018-02-23T06:27:28.748Z,8.00
2018-02-23T06:28:29.006Z,8.00
2018-02-23T06:29:29.278Z,4.00
2018-02-23T06:30:29.547Z,8.00
2018-02-23T06:31:29.805Z,8.00
2018-02-23T06:32:30.081Z,8.00
2018-02-23T06:33:30.336Z,8.00
2018-02-23T06:34:30.603Z,8.00
2018-02-23T06:35:30.862Z,12.00
2018-02-23T06:36:31.132Z,8.00
2018-02-23T06:37:31.392Z,8.00
2018-02-23T06:38:31.664Z,12.00
2018-02-23T06:39:31.925Z,12.00
2018-02-23T06:40:32.191Z,12.00
2018-02-23T06:41:32.453Z,12.00
2018-02-23T06:42:32.727Z,16.00
2018-02-23T06:43:32.989Z,16.00
2018-02-23T06:44:33.244Z,12.00
2018-02-23T06:45:33.506Z,16.00
2018-02-23T06:46:33.767Z,16.00
2018-02-23T06:47:34.039Z,16.00
2018-02-23T06:48:34.296Z,16.00
2018-02-23T06:49:34.568Z,16.00
2018-02-23T06:50:34.826Z,16.00
2018-02-23T06:51:35.091Z,16.00
2018-02-23T06:52:35.348Z,20.00
2018-02-23T06:53:35.617Z,20.00
2018-02-23T06:54:35.875Z,20.00
2018-02-23T06:55:36.143Z,20.00
2018-02-23T06:56:36.401Z,20.00
2018-02-23T06:57:36.679Z,24.00
2018-02-23T06:58:36.948Z,24.00
2018-02-23T06:59:37.212Z,24.00
2018-02-23T07:00:37.477Z,24.00
2018-02-23T07:01:37.739Z,24.00
2018-02-23T07:02:38.001Z,24.00
2018-02-23T07:03:38.258Z,24.00
2018-02-23T07:04:38.601Z,28.00
2018-02-23T07:05:38.819Z,28.00
2018-02-23T07:06:39.118Z,28.00
2018-02-23T07:07:39.379Z,28.00
2018-02-23T07:08:39.664Z,28.00
2018-02-23T07:09:39.940Z,28.00
2018-02-23T07:10:40.207Z,32.00
2018-02-23T07:11:40.463Z,32.00
2018-02-23T07:12:40.772Z,32.00
2018-02-23T07:13:41.019Z,32.00
2018-02-23T07:14:41.293Z,36.00
2018-02-23T07:15:41.545Z,36.00
2018-02-23T07:16:41.849Z,32.00
2018-02-23T07:17:42.094Z,32.00
2018-02-23T07:18:42.799Z,36.00
2018-02-23T07:19:42.635Z,36.00
2018-02-23T07:20:42.903Z,36.00
2018-02-23T07:21:43.158Z,36.00
2018-02-23T07:22:43.437Z,40.00
2018-02-23T07:23:43.681Z,36.00
2018-02-23T07:24:44.206Z,36.00
2018-02-23T07:25:44.211Z,40.00
2018-02-23T07:26:44.482Z,40.00
2018-02-23T07:27:44.762Z,36.00
2018-02-23T07:28:45.013Z,36.00
2018-02-23T07:29:45.284Z,40.00
2018-02-23T07:30:45.931Z,40.00
2018-02-23T07:31:45.809Z,40.00
2018-02-23T07:32:46.493Z,40.00
2018-02-23T07:33:46.781Z,40.00
2018-02-23T07:34:46.988Z,40.00
2018-02-23T07:35:46.865Z,40.00
2018-02-23T07:36:47.149Z,44.00
2018-02-23T07:37:47.413Z,40.00
2018-02-23T07:38:47.673Z,44.00
2018-02-23T07:39:47.941Z,44.00
2018-02-23T07:40:48.201Z,44.00
2018-02-23T07:41:48.467Z,44.00
2018-02-23T07:42:48.730Z,44.00
2018-02-23T07:43:48.993Z,44.00
2018-02-23T07:44:49.258Z,48.00
2018-02-23T07:45:49.527Z,48.00
2018-02-23T07:46:49.787Z,44.00
2018-02-23T07:47:50.053Z,48.00
2018-02-23T07:48:50.316Z,48.00
2018-02-23T07:49:50.576Z,44.00
2018-02-23T07:50:50.851Z,48.00
2018-02-23T07:51:51.108Z,48.00
2018-02-23T07:52:51.382Z,48.00
2018-02-23T07:53:51.645Z,48.00
2018-02-23T07:54:51.909Z,48.00
2018-02-23T07:55:52.162Z,48.00
2018-02-23T07:56:52.433Z,48.00
2018-02-23T07:57:52.700Z,52.00
2018-02-23T07:58:52.961Z,48.00
2018-02-23T07:59:53.236Z,52.00
2018-02-23T08:00:53.505Z,52.00
2018-02-23T08:01:53.769Z,52.00
2018-02-23T08:02:54.044Z,48.00
2018-02-23T08:03:54.296Z,52.00
2018-02-23T08:04:54.570Z,52.00
2018-02-23T08:05:54.827Z,48.00
2018-02-23T08:06:55.081Z,48.00
2018-02-23T08:07:55.392Z,52.00
2018-02-23T08:08:55.616Z,52.00
2018-02-23T08:09:55.883Z,52.00
2018-02-23T08:10:56.146Z,52.00
2018-02-23T08:11:56.412Z,56.00
2018-02-23T08:12:56.676Z,52.00
2018-02-23T08:13:56.940Z,48.00
2018-02-23T08:14:57.214Z,52.00
2018-02-23T08:15:57.477Z,48.00
2018-02-23T08:16:57.746Z,56.00
2018-02-23T08:17:58.010Z,52.00
2018-02-23T08:18:58.281Z,44.00
2018-02-23T08:19:58.549Z,56.00
2018-02-23T08:20:58.810Z,48.00
2018-02-23T08:21:59.068Z,56.00
2018-02-23T08:22:59.336Z,56.00
2018-02-23T08:23:59.601Z,48.00
2018-02-23T08:24:59.863Z,52.00
2018-02-23T08:26:00.118Z,56.00
2018-02-23T08:27:00.431Z,56.00
2018-02-23T08:28:00.656Z,60.00
2018-02-23T08:29:00.919Z,52.00
2018-02-23T08:30:01.194Z,52.00
2018-02-23T08:31:01.448Z,64.00
2018-02-23T08:32:01.711Z,60.00
2018-02-23T08:33:01.976Z,60.00
2018-02-23T08:34:02.240Z,48.00
2018-02-23T08:35:02.502Z,60.00
2018-02-23T08:36:02.767Z,60.00
2018-02-23T08:37:03.034Z,60.00
2018-02-23T08:38:03.304Z,60.00
2018-02-23T08:39:03.557Z,60.00
2018-02-23T08:40:03.844Z,60.00
2018-02-23T08:41:04.081Z,56.00
2018-02-23T08:42:04.349Z,60.00
2018-02-23T08:43:04.608Z,60.00
2018-02-23T08:44:04.872Z,60.00
2018-02-23T08:45:05.135Z,48.00
2018-02-23T08:46:05.401Z,60.00
2018-02-23T08:47:05.669Z,60.00
2018-02-23T08:48:05.932Z,60.00
2018-02-23T08:49:06.185Z,60.00
2018-02-23T08:50:06.456Z,64.00
2018-02-23T08:52:38.352Z,44.00
2018-02-23T08:53:38.638Z,60.00
2018-02-23T08:57:10.720Z,64.00
2018-02-23T08:58:10.991Z,56.00
2018-02-23T08:59:11.256Z,68.00
2018-02-23T09:00:11.531Z,60.00
2018-02-23T09:01:11.786Z,56.00
2018-02-23T09:02:12.051Z,52.00
2018-02-23T09:03:12.315Z,68.00
2018-02-23T09:04:12.582Z,68.00
2018-02-23T09:05:12.881Z,68.00
2018-02-23T09:06:13.183Z,64.00
2018-02-23T09:07:13.493Z,64.00
2018-02-23T09:08:13.712Z,64.00
2018-02-23T09:09:13.970Z,64.00
2018-02-23T09:10:14.232Z,64.00
2018-02-23T09:11:14.495Z,68.00
2018-02-23T09:12:14.757Z,64.00
2018-02-23T09:13:15.016Z,64.00
2018-02-23T09:14:15.282Z,64.00
2018-02-23T09:15:15.546Z,68.00
2018-02-23T09:16:15.790Z,64.00
2018-02-23T09:17:16.057Z,60.00
2018-02-23T09:18:17.200Z,60.00
2018-02-23T09:19:16.570Z,64.00
2018-02-23T09:20:16.834Z,64.00
2018-02-23T09:21:17.102Z,64.00
2018-02-23T09:22:17.361Z,64.00
2018-02-23T09:23:17.627Z,64.00
2018-02-23T09:24:17.891Z,64.00
2018-02-23T09:25:18.166Z,64.00
2018-02-23T09:26:18.421Z,64.00
2018-02-23T09:27:18.689Z,64.00
2018-02-23T09:28:18.948Z,64.00
2018-02-23T09:29:19.212Z,60.00
2018-02-23T09:30:19.475Z,64.00
2018-02-23T09:31:19.742Z,64.00
2018-02-23T09:32:20.006Z,64.00
2018-02-23T09:33:20.267Z,64.00
2018-02-23T09:34:20.580Z,60.00
2018-02-23T09:35:20.819Z,64.00
2018-02-23T09:36:21.096Z,56.00
2018-02-23T09:37:21.356Z,64.00
2018-02-23T09:38:21.619Z,64.00
2018-02-23T09:39:21.884Z,64.00
2018-02-23T09:40:22.149Z,64.00
2018-02-23T09:41:22.414Z,60.00
2018-02-23T09:42:22.675Z,64.00
2018-02-23T09:43:23.021Z,60.00
2018-02-23T09:44:23.237Z,64.00
2018-02-23T09:45:23.502Z,60.00
2018-02-23T09:46:23.765Z,56.00
2018-02-23T09:47:24.030Z,64.00
2018-02-23T09:48:24.294Z,64.00
2018-02-23T09:49:24.596Z,64.00
2018-02-23T09:50:24.833Z,64.00
2018-02-23T09:51:25.101Z,64.00
2018-02-23T09:52:25.382Z,60.00
2018-02-23T09:53:25.640Z,64.00
2018-02-23T09:54:25.942Z,64.00
2018-02-23T09:55:26.220Z,64.00
2018-02-23T09:56:26.478Z,60.00
2018-02-23T09:57:26.741Z,64.00
2018-02-23T09:58:27.000Z,60.00
2018-02-23T09:59:27.273Z,64.00
2018-02-23T10:00:27.529Z,64.00
2018-02-23T10:01:27.815Z,60.00
2018-02-23T10:02:28.099Z,64.00
2018-02-23T10:03:28.469Z,64.00
2018-02-23T10:04:28.638Z,60.00
2018-02-23T10:05:28.914Z,64.00
2018-02-23T10:06:29.190Z,64.00
2018-02-23T10:07:29.458Z,64.00
2018-02-23T10:08:29.695Z,60.00
2018-02-23T10:09:29.965Z,64.00
2018-02-23T10:10:30.239Z,64.00
2018-02-23T10:11:30.487Z,64.00
2018-02-23T10:12:30.749Z,64.00
2018-02-23T10:13:31.014Z,64.00
2018-02-23T10:14:31.295Z,64.00
2018-02-23T10:15:31.555Z,60.00
2018-02-23T10:16:31.869Z,60.00
2018-02-23T10:17:32.217Z,64.00
2018-02-23T10:18:32.498Z,60.00
2018-02-23T10:19:32.755Z,64.00
2018-02-23T10:20:33.033Z,64.00
2018-02-23T10:21:33.289Z,60.00
2018-02-23T10:22:33.605Z,60.00
2018-02-23T10:23:33.829Z,60.00
2018-02-23T10:24:34.105Z,60.00
2018-02-23T10:25:34.344Z,60.00
2018-02-23T10:26:34.620Z,60.00
2018-02-23T10:27:34.872Z,60.00
2018-02-23T10:28:35.435Z,64.00
2018-02-23T10:29:35.531Z,60.00
2018-02-23T10:30:35.853Z,60.00
2018-02-23T10:31:36.049Z,60.00
2018-02-23T10:32:36.325Z,60.00
2018-02-23T10:33:36.586Z,60.00
2018-02-23T10:34:37.288Z,64.00
2018-02-23T10:35:37.269Z,64.00
2018-02-23T10:36:37.549Z,60.00
2018-02-23T10:37:37.832Z,60.00
2018-02-23T10:38:38.099Z,60.00
2018-02-23T10:39:38.436Z,60.00
2018-02-23T10:40:38.683Z,60.00
2018-02-23T10:41:38.956Z,60.00
2018-02-23T10:42:39.243Z,60.00
2018-02-23T10:43:39.487Z,64.00
2018-02-23T10:44:40.004Z,60.00
2018-02-23T10:45:40.308Z,64.00
2018-02-23T10:46:40.338Z,64.00
2018-02-23T10:47:40.597Z,64.00
2018-02-23T10:48:40.862Z,64.00
2018-02-23T10:49:41.126Z,64.00
2018-02-23T10:50:41.627Z,64.00
2018-02-23T10:51:42.068Z,64.00
2018-02-23T10:52:42.067Z,64.00
2018-02-23T10:53:42.332Z,64.00
2018-02-23T10:54:42.596Z,64.00
2018-02-23T10:55:42.943Z,60.00
2018-02-23T10:56:43.397Z,60.00
2018-02-23T10:57:43.445Z,60.00
2018-02-23T10:58:43.849Z,60.00
2018-02-23T10:59:44.127Z,60.00
2018-02-23T11:00:44.404Z,60.00
2018-02-23T11:01:44.706Z,60.00
2018-02-23T11:02:45.086Z,60.00
2018-02-23T11:03:45.300Z,60.00
2018-02-23T11:04:45.568Z,60.00
2018-02-23T11:05:45.832Z,64.00
2018-02-23T11:06:46.094Z,60.00
2018-02-23T11:07:46.533Z,60.00
2018-02-23T11:08:46.820Z,64.00
2018-02-23T11:09:47.333Z,64.00
2018-02-23T11:10:47.381Z,64.00
2018-02-23T11:11:48.239Z,64.00
2018-02-23T11:12:48.810Z,60.00
2018-02-23T11:13:48.432Z,64.00
2018-02-23T11:14:48.466Z,64.00
2018-02-23T11:15:48.746Z,60.00
2018-02-23T11:16:49.019Z,60.00
2018-02-23T11:17:49.369Z,60.00
2018-02-23T11:18:49.759Z,60.00
2018-02-23T11:19:50.086Z,60.00
2018-02-23T11:20:50.147Z,60.00
2018-02-23T11:21:50.401Z,60.00
2018-02-23T11:22:50.683Z,60.00
2018-02-23T11:23:50.928Z,60.00
2018-02-23T11:24:51.193Z,60.00
2018-02-23T11:25:51.457Z,60.00
2018-02-23T11:26:51.721Z,60.00
2018-02-23T11:27:51.981Z,60.00
2018-02-23T11:28:52.245Z,60.00
2018-02-23T11:29:52.513Z,60.00
2018-02-23T11:30:52.770Z,60.00
2018-02-23T11:31:53.056Z,60.00
2018-02-23T11:32:53.321Z,60.00
2018-02-23T11:33:53.584Z,60.00
2018-02-23T11:34:53.858Z,60.00
2018-02-23T11:35:54.536Z,60.00
2018-02-23T11:36:54.562Z,60.00
2018-02-23T11:37:54.837Z,60.00
2018-02-23T11:38:55.101Z,60.00
2018-02-23T11:39:55.374Z,60.00
2018-02-23T11:40:56.106Z,60.00
2018-02-23T11:41:56.263Z,60.00
2018-02-23T11:42:56.299Z,60.00
2018-02-23T11:43:56.563Z,60.00
2018-02-23T11:44:56.827Z,132.00
2018-02-23T11:45:57.094Z,200.00
2018-02-23T11:46:57.736Z,220.00
2018-02-23T11:47:57.769Z,228.00
2018-02-23T11:48:58.036Z,232.00
2018-02-23T11:49:58.303Z,232.00
2018-02-23T11:50:58.569Z,232.00
2018-02-23T11:51:58.826Z,232.00
2018-02-23T11:52:59.098Z,224.00
2018-02-23T11:53:59.361Z,232.00
2018-02-23T11:54:59.631Z,232.00
2018-02-23T11:55:59.995Z,232.00
2018-02-23T11:57:00.150Z,232.00
2018-02-23T11:58:00.418Z,228.00
2018-02-23T11:59:00.683Z,228.00
2018-02-23T12:00:05.901Z,228.00
2018-02-23T12:01:01.363Z,228.00
2018-02-23T12:02:01.564Z,228.00
2018-02-23T12:03:01.856Z,208.00
2018-02-23T12:04:02.100Z,224.00
2018-02-23T12:05:02.374Z,224.00
2018-02-23T12:06:02.649Z,224.00
2018-02-23T12:07:02.937Z,224.00
2018-02-23T12:08:03.214Z,224.00
2018-02-23T12:09:03.476Z,224.00
2018-02-23T12:10:03.756Z,220.00
2018-02-23T12:11:04.021Z,216.00
2018-02-23T12:12:04.285Z,224.00
2018-02-23T12:13:04.553Z,224.00
2018-02-23T12:14:04.823Z,212.00
2018-02-23T12:15:05.089Z,224.00
2018-02-23T12:16:05.357Z,224.00
2018-02-23T12:17:05.634Z,220.00
2018-02-23T12:18:05.892Z,204.00
2018-02-23T12:19:06.157Z,212.00
2018-02-23T12:20:06.421Z,64.00
2018-02-23T12:21:06.706Z,64.00
2018-02-23T12:22:06.980Z,60.00
2018-02-23T12:23:07.247Z,60.00
2018-02-23T12:24:07.507Z,60.00
2018-02-23T12:25:07.775Z,64.00
2018-02-23T12:26:08.036Z,64.00
2018-02-23T12:27:08.304Z,60.00
2018-02-23T12:28:08.561Z,64.00
2018-02-23T12:29:08.835Z,64.00
2018-02-23T12:30:11.489Z,64.00
2018-02-23T12:31:09.450Z,64.00
2018-02-23T12:32:09.714Z,64.00
2018-02-23T12:33:09.980Z,64.00
2018-02-23T12:34:10.248Z,64.00
2018-02-23T12:35:10.514Z,64.00
2018-02-23T12:36:10.774Z,64.00
2018-02-23T12:37:11.042Z,64.00
2018-02-23T12:38:11.310Z,68.00
2018-02-23T12:39:11.571Z,68.00
2018-02-23T12:40:11.830Z,68.00
2018-02-23T12:41:12.095Z,68.00
2018-02-23T12:42:12.376Z,68.00
2018-02-23T12:43:12.649Z,68.00
2018-02-23T12:44:12.907Z,68.00
2018-02-23T12:45:13.177Z,68.00
2018-02-23T12:46:13.434Z,68.00
2018-02-23T12:47:13.698Z,72.00
2018-02-23T12:48:13.964Z,72.00
2018-02-23T12:49:14.228Z,72.00
2018-02-23T12:50:14.495Z,72.00
2018-02-23T12:51:14.756Z,72.00
2018-02-23T12:52:15.016Z,72.00
2018-02-23T12:53:15.277Z,72.00
2018-02-23T12:54:15.550Z,72.00
2018-02-23T12:55:15.816Z,72.00
2018-02-23T12:56:16.069Z,72.00
2018-02-23T12:57:16.334Z,76.00
2018-02-23T12:58:16.593Z,72.00
2018-02-23T12:59:16.860Z,72.00
2018-02-23T13:00:17.141Z,72.00
2018-02-23T13:01:17.394Z,72.00
2018-02-23T13:02:17.666Z,68.00
2018-02-23T13:03:17.925Z,72.00
2018-02-23T13:04:18.189Z,72.00
2018-02-23T13:05:18.458Z,72.00
2018-02-23T13:06:18.715Z,72.00
2018-02-23T13:07:18.991Z,72.00
2018-02-23T13:08:19.248Z,72.00
2018-02-23T13:09:19.508Z,72.00
2018-02-23T13:10:19.773Z,92.00
2018-02-23T13:11:20.033Z,96.00
2018-02-23T13:12:20.290Z,104.00